sensor_id;sensor_type;location;lat;lon;timestamp;temperature;humidity
40952;DHT22;26682;51.660;19.338;2023-02-01T00:00:41;2.50;99.90
40952;DHT22;26682;51.660;19.338;2023-02-01T00:02:44;2.50;99.90
40952;DHT22;26682;51.660;19.338;2023-02-01T00:04:31;2.40;99.90
40952;DHT22;26682;51.660;19.338;2023-02-01T00:06:18;2.40;99.90
40952;DHT22;26682;51.660;19.338;2023-02-01T00:08:06;2.30;99.90
40952;DHT22;26682;51.660;19.338;2023-02-01T00:09:53;2.30;99.90
40952;DHT22;26682;51.660;19.338;2023-02-01T00:11:40;2.20;99.90
40952;DHT22;26682;51.660;19.338;2023-02-01T00:13:29;2.20;99.90
40952;DHT22;26682;51.660;19.338;2023-02-01T00:15:17;2.10;99.90
40952;DHT22;26682;51.660;19.338;2023-02-01T00:17:05;2.10;99.90
40952;DHT22;26682;51.660;19.338;2023-02-01T00:19:02;2.00;99.90
40952;DHT22;26682;51.660;19.338;2023-02-01T00:20:50;2.00;99.90
40952;DHT22;26682;51.660;19.338;2023-02-01T00:22:37;2.00;99.90
40952;DHT22;26682;51.660;19.338;2023-02-01T00:24:25;1.90;99.90
40952;DHT22;26682;51.660;19.338;2023-02-01T00:26:16;1.90;99.90
40952;DHT22;26682;51.660;19.338;2023-02-01T00:28:04;1.90;99.90
40952;DHT22;26682;51.660;19.338;2023-02-01T00:29:54;1.90;99.90
40952;DHT22;26682;51.660;19.338;2023-02-01T00:31:42;1.90;99.90
40952;DHT22;26682;51.660;19.338;2023-02-01T00:33:31;1.90;99.90
40952;DHT22;26682;51.660;19.338;2023-02-01T00:35:18;2.00;99.90
40952;DHT22;26682;51.660;19.338;2023-02-01T00:37:06;2.00;99.90
40952;DHT22;26682;51.660;19.338;2023-02-01T00:38:53;2.00;99.90
40952;DHT22;26682;51.660;19.338;2023-02-01T00:40:41;2.10;99.90
40952;DHT22;26682;51.660;19.338;2023-02-01T00:42:28;2.10;99.90
40952;DHT22;26682;51.660;19.338;2023-02-01T00:44:16;2.10;99.90
40952;DHT22;26682;51.660;19.338;2023-02-01T00:46:04;2.10;99.90
40952;DHT22;26682;51.660;19.338;2023-02-01T00:47:51;2.10;99.90
40952;DHT22;26682;51.660;19.338;2023-02-01T00:49:39;2.10;99.90
40952;DHT22;26682;51.660;19.338;2023-02-01T00:51:27;2.10;99.90
40952;DHT22;26682;51.660;19.338;2023-02-01T00:53:15;2.10;99.90
40952;DHT22;26682;51.660;19.338;2023-02-01T00:55:02;2.00;99.90
40952;DHT22;26682;51.660;19.338;2023-02-01T00:56:50;2.00;99.90
40952;DHT22;26682;51.660;19.338;2023-02-01T00:58:39;1.90;99.90
40952;DHT22;26682;51.660;19.338;2023-02-01T01:00:26;1.90;99.90
40952;DHT22;26682;51.660;19.338;2023-02-01T01:02:13;1.80;99.90
40952;DHT22;26682;51.660;19.338;2023-02-01T01:04:01;1.80;99.90
40952;DHT22;26682;51.660;19.338;2023-02-01T01:05:49;1.80;99.90
40952;DHT22;26682;51.660;19.338;2023-02-01T01:07:36;1.80;99.90
40952;DHT22;26682;51.660;19.338;2023-02-01T01:09:23;1.80;99.90
40952;DHT22;26682;51.660;19.338;2023-02-01T01:11:20;1.80;99.90
40952;DHT22;26682;51.660;19.338;2023-02-01T01:13:09;1.70;99.90
40952;DHT22;26682;51.660;19.338;2023-02-01T01:14:57;1.80;99.90
40952;DHT22;26682;51.660;19.338;2023-02-01T01:16:44;1.80;99.90
40952;DHT22;26682;51.660;19.338;2023-02-01T01:18:33;1.80;99.90
40952;DHT22;26682;51.660;19.338;2023-02-01T01:20:20;1.80;99.90
40952;DHT22;26682;51.660;19.338;2023-02-01T01:22:09;1.80;99.90
40952;DHT22;26682;51.660;19.338;2023-02-01T01:23:57;1.80;99.90
40952;DHT22;26682;51.660;19.338;2023-02-01T01:25:44;1.90;99.90
40952;DHT22;26682;51.660;19.338;2023-02-01T01:27:31;1.90;99.90
40952;DHT22;26682;51.660;19.338;2023-02-01T01:29:19;1.90;99.90
40952;DHT22;26682;51.660;19.338;2023-02-01T01:31:10;1.90;99.90
40952;DHT22;26682;51.660;19.338;2023-02-01T01:32:58;1.90;99.90
40952;DHT22;26682;51.660;19.338;2023-02-01T01:34:45;2.00;99.90
40952;DHT22;26682;51.660;19.338;2023-02-01T01:36:32;2.00;99.90
40952;DHT22;26682;51.660;19.338;2023-02-01T01:38:20;2.00;99.90
40952;DHT22;26682;51.660;19.338;2023-02-01T01:40:09;2.00;99.90
40952;DHT22;26682;51.660;19.338;2023-02-01T01:41:58;2.00;99.90
40952;DHT22;26682;51.660;19.338;2023-02-01T01:43:54;2.10;99.90
40952;DHT22;26682;51.660;19.338;2023-02-01T01:45:43;2.10;99.90
40952;DHT22;26682;51.660;19.338;2023-02-01T01:47:43;2.10;99.90
40952;DHT22;26682;51.660;19.338;2023-02-01T01:49:32;2.10;99.90
40952;DHT22;26682;51.660;19.338;2023-02-01T01:51:21;2.10;99.90
40952;DHT22;26682;51.660;19.338;2023-02-01T01:53:11;2.10;99.90
40952;DHT22;26682;51.660;19.338;2023-02-01T01:55:01;2.20;99.90
40952;DHT22;26682;51.660;19.338;2023-02-01T01:56:52;2.20;99.90
40952;DHT22;26682;51.660;19.338;2023-02-01T01:58:40;2.20;99.90
40952;DHT22;26682;51.660;19.338;2023-02-01T02:00:28;2.20;99.90
40952;DHT22;26682;51.660;19.338;2023-02-01T02:02:16;2.20;99.90
40952;DHT22;26682;51.660;19.338;2023-02-01T02:04:05;2.30;99.90
40952;DHT22;26682;51.660;19.338;2023-02-01T02:05:54;2.30;99.90
40952;DHT22;26682;51.660;19.338;2023-02-01T02:07:46;2.30;99.90
40952;DHT22;26682;51.660;19.338;2023-02-01T02:09:35;2.30;99.90
40952;DHT22;26682;51.660;19.338;2023-02-01T02:11:22;2.30;99.90
40952;DHT22;26682;51.660;19.338;2023-02-01T02:13:10;2.40;99.90
40952;DHT22;26682;51.660;19.338;2023-02-01T02:14:57;2.40;99.90
40952;DHT22;26682;51.660;19.338;2023-02-01T02:17:06;2.30;99.90
40952;DHT22;26682;51.660;19.338;2023-02-01T02:21:23;2.30;99.90
40952;DHT22;26682;51.660;19.338;2023-02-01T02:25:25;2.30;99.90
40952;DHT22;26682;51.660;19.338;2023-02-01T02:29:19;2.30;99.90
40952;DHT22;26682;51.660;19.338;2023-02-01T02:35:42;2.30;99.90
40952;DHT22;26682;51.660;19.338;2023-02-01T02:37:41;2.20;99.90
40952;DHT22;26682;51.660;19.338;2023-02-01T02:42:17;2.20;99.90
40952;DHT22;26682;51.660;19.338;2023-02-01T02:44:38;2.20;99.90
40952;DHT22;26682;51.660;19.338;2023-02-01T02:46:48;2.20;99.90
40952;DHT22;26682;51.660;19.338;2023-02-01T02:53:47;2.30;99.90
40952;DHT22;26682;51.660;19.338;2023-02-01T02:55:55;2.30;99.90
40952;DHT22;26682;51.660;19.338;2023-02-01T02:58:03;2.30;99.90
40952;DHT22;26682;51.660;19.338;2023-02-01T03:00:18;2.30;99.90
40952;DHT22;26682;51.660;19.338;2023-02-01T03:02:26;2.30;99.90
40952;DHT22;26682;51.660;19.338;2023-02-01T03:04:32;2.30;99.90
40952;DHT22;26682;51.660;19.338;2023-02-01T03:06:22;2.30;99.90
40952;DHT22;26682;51.660;19.338;2023-02-01T03:08:13;2.30;95.10
40952;DHT22;26682;51.660;19.338;2023-02-01T03:10:03;2.40;76.20
40952;DHT22;26682;51.660;19.338;2023-02-01T03:11:59;2.40;46.50
40952;DHT22;26682;51.660;19.338;2023-02-01T03:14:08;2.40;32.10
40952;DHT22;26682;51.660;19.338;2023-02-01T03:18:25;2.40;17.50
40952;DHT22;26682;51.660;19.338;2023-02-01T03:20:14;2.40;14.80
40952;DHT22;26682;51.660;19.338;2023-02-01T03:22:06;2.30;19.00
40952;DHT22;26682;51.660;19.338;2023-02-01T03:24:01;2.30;26.90
40952;DHT22;26682;51.660;19.338;2023-02-01T03:25:52;2.30;31.20
40952;DHT22;26682;51.660;19.338;2023-02-01T03:27:52;2.30;36.70
40952;DHT22;26682;51.660;19.338;2023-02-01T03:31:58;2.40;35.60
40952;DHT22;26682;51.660;19.338;2023-02-01T03:33:46;2.40;17.70
40952;DHT22;26682;51.660;19.338;2023-02-01T03:37:27;2.40;1.70
40952;DHT22;26682;51.660;19.338;2023-02-01T03:43:21;2.50;1.00
40952;DHT22;26682;51.660;19.338;2023-02-01T03:45:14;2.50;1.00
40952;DHT22;26682;51.660;19.338;2023-02-01T03:47:21;2.50;1.00
40952;DHT22;26682;51.660;19.338;2023-02-01T03:49:17;2.50;1.00
40952;DHT22;26682;51.660;19.338;2023-02-01T03:51:07;2.50;1.00
40952;DHT22;26682;51.660;19.338;2023-02-01T03:52:59;2.50;1.00
40952;DHT22;26682;51.660;19.338;2023-02-01T03:54:50;2.50;1.00
40952;DHT22;26682;51.660;19.338;2023-02-01T03:56:40;2.50;1.00
40952;DHT22;26682;51.660;19.338;2023-02-01T03:58:31;2.50;1.00
40952;DHT22;26682;51.660;19.338;2023-02-01T04:00:24;2.60;1.00
40952;DHT22;26682;51.660;19.338;2023-02-01T04:02:13;2.60;1.00
40952;DHT22;26682;51.660;19.338;2023-02-01T04:04:01;2.60;1.00
40952;DHT22;26682;51.660;19.338;2023-02-01T04:05:49;2.60;1.00
40952;DHT22;26682;51.660;19.338;2023-02-01T04:07:36;2.60;1.00
40952;DHT22;26682;51.660;19.338;2023-02-01T04:09:24;2.60;1.00
40952;DHT22;26682;51.660;19.338;2023-02-01T04:11:11;2.60;1.00
40952;DHT22;26682;51.660;19.338;2023-02-01T04:12:58;2.50;1.00
40952;DHT22;26682;51.660;19.338;2023-02-01T04:14:46;2.50;1.00
40952;DHT22;26682;51.660;19.338;2023-02-01T04:16:34;2.60;1.00
40952;DHT22;26682;51.660;19.338;2023-02-01T04:18:21;2.60;1.00
40952;DHT22;26682;51.660;19.338;2023-02-01T04:20:09;2.60;1.00
40952;DHT22;26682;51.660;19.338;2023-02-01T04:21:56;2.60;1.00
40952;DHT22;26682;51.660;19.338;2023-02-01T04:23:43;2.60;1.00
40952;DHT22;26682;51.660;19.338;2023-02-01T04:25:31;2.60;1.00
40952;DHT22;26682;51.660;19.338;2023-02-01T04:27:18;2.60;1.00
40952;DHT22;26682;51.660;19.338;2023-02-01T04:29:06;2.60;1.00
40952;DHT22;26682;51.660;19.338;2023-02-01T04:30:53;2.60;1.00
40952;DHT22;26682;51.660;19.338;2023-02-01T04:32:40;2.60;1.00
40952;DHT22;26682;51.660;19.338;2023-02-01T04:34:28;2.60;1.00
40952;DHT22;26682;51.660;19.338;2023-02-01T04:36:15;2.60;1.00
40952;DHT22;26682;51.660;19.338;2023-02-01T04:38:06;2.60;1.00
40952;DHT22;26682;51.660;19.338;2023-02-01T04:39:54;2.60;1.00
40952;DHT22;26682;51.660;19.338;2023-02-01T04:41:41;2.60;1.00
40952;DHT22;26682;51.660;19.338;2023-02-01T04:43:29;2.60;1.00
40952;DHT22;26682;51.660;19.338;2023-02-01T04:45:16;2.60;1.00
40952;DHT22;26682;51.660;19.338;2023-02-01T04:47:04;2.60;1.00
40952;DHT22;26682;51.660;19.338;2023-02-01T04:48:51;2.60;1.00
40952;DHT22;26682;51.660;19.338;2023-02-01T04:50:38;2.60;1.00
40952;DHT22;26682;51.660;19.338;2023-02-01T04:52:25;2.60;99.90
40952;DHT22;26682;51.660;19.338;2023-02-01T04:54:14;2.60;99.90
40952;DHT22;26682;51.660;19.338;2023-02-01T04:56:01;2.60;99.90
40952;DHT22;26682;51.660;19.338;2023-02-01T04:57:48;2.60;99.90
40952;DHT22;26682;51.660;19.338;2023-02-01T04:59:36;2.70;99.90
40952;DHT22;26682;51.660;19.338;2023-02-01T05:01:23;2.60;99.90
40952;DHT22;26682;51.660;19.338;2023-02-01T05:03:11;2.60;99.90
40952;DHT22;26682;51.660;19.338;2023-02-01T05:04:59;2.70;99.90
40952;DHT22;26682;51.660;19.338;2023-02-01T05:06:46;2.60;99.90
40952;DHT22;26682;51.660;19.338;2023-02-01T05:08:33;2.70;99.90
40952;DHT22;26682;51.660;19.338;2023-02-01T05:10:24;2.70;99.90
40952;DHT22;26682;51.660;19.338;2023-02-01T05:12:11;2.70;99.90
40952;DHT22;26682;51.660;19.338;2023-02-01T05:14:18;2.70;99.90
40952;DHT22;26682;51.660;19.338;2023-02-01T05:16:05;2.60;99.90
40952;DHT22;26682;51.660;19.338;2023-02-01T05:17:53;2.60;99.90
40952;DHT22;26682;51.660;19.338;2023-02-01T05:19:40;2.60;99.90
40952;DHT22;26682;51.660;19.338;2023-02-01T05:21:27;2.60;99.90
40952;DHT22;26682;51.660;19.338;2023-02-01T05:23:14;2.60;99.90
40952;DHT22;26682;51.660;19.338;2023-02-01T05:25:02;2.60;99.90
40952;DHT22;26682;51.660;19.338;2023-02-01T05:26:49;2.60;99.90
40952;DHT22;26682;51.660;19.338;2023-02-01T05:28:36;2.60;99.90
40952;DHT22;26682;51.660;19.338;2023-02-01T05:30:24;2.60;99.90
40952;DHT22;26682;51.660;19.338;2023-02-01T05:32:12;2.60;99.90
40952;DHT22;26682;51.660;19.338;2023-02-01T05:34:08;2.60;99.90
40952;DHT22;26682;51.660;19.338;2023-02-01T05:35:56;2.60;99.90
40952;DHT22;26682;51.660;19.338;2023-02-01T05:37:43;2.60;99.90
40952;DHT22;26682;51.660;19.338;2023-02-01T05:39:30;2.70;99.90
40952;DHT22;26682;51.660;19.338;2023-02-01T05:41:18;2.70;99.90
40952;DHT22;26682;51.660;19.338;2023-02-01T05:43:07;2.70;99.90
40952;DHT22;26682;51.660;19.338;2023-02-01T05:44:54;2.70;99.90
40952;DHT22;26682;51.660;19.338;2023-02-01T05:46:42;2.70;99.90
40952;DHT22;26682;51.660;19.338;2023-02-01T05:48:29;2.70;99.90
40952;DHT22;26682;51.660;19.338;2023-02-01T05:50:17;2.70;99.90
40952;DHT22;26682;51.660;19.338;2023-02-01T05:52:05;2.70;99.90
40952;DHT22;26682;51.660;19.338;2023-02-01T05:53:53;2.70;99.90
40952;DHT22;26682;51.660;19.338;2023-02-01T05:55:41;2.70;99.90
40952;DHT22;26682;51.660;19.338;2023-02-01T05:57:29;2.70;99.90
40952;DHT22;26682;51.660;19.338;2023-02-01T05:59:17;2.70;99.90
40952;DHT22;26682;51.660;19.338;2023-02-01T06:01:04;2.70;99.90
40952;DHT22;26682;51.660;19.338;2023-02-01T06:02:51;2.70;99.90
40952;DHT22;26682;51.660;19.338;2023-02-01T06:04:39;2.70;99.90
40952;DHT22;26682;51.660;19.338;2023-02-01T06:06:26;2.70;99.90
40952;DHT22;26682;51.660;19.338;2023-02-01T06:08:14;2.70;99.90
40952;DHT22;26682;51.660;19.338;2023-02-01T06:10:02;2.70;99.90
40952;DHT22;26682;51.660;19.338;2023-02-01T06:11:49;2.70;99.90
40952;DHT22;26682;51.660;19.338;2023-02-01T06:13:37;2.70;99.90
40952;DHT22;26682;51.660;19.338;2023-02-01T06:15:25;2.70;99.90
40952;DHT22;26682;51.660;19.338;2023-02-01T06:17:13;2.70;99.90
40952;DHT22;26682;51.660;19.338;2023-02-01T06:19:00;2.70;99.90
40952;DHT22;26682;51.660;19.338;2023-02-01T06:20:58;2.70;99.90
40952;DHT22;26682;51.660;19.338;2023-02-01T06:22:47;2.80;99.90
40952;DHT22;26682;51.660;19.338;2023-02-01T06:24:34;2.80;99.90
40952;DHT22;26682;51.660;19.338;2023-02-01T06:26:22;2.80;99.90
40952;DHT22;26682;51.660;19.338;2023-02-01T06:28:09;2.80;99.90
40952;DHT22;26682;51.660;19.338;2023-02-01T06:29:56;2.80;99.90
40952;DHT22;26682;51.660;19.338;2023-02-01T06:31:44;2.90;99.90
40952;DHT22;26682;51.660;19.338;2023-02-01T06:33:33;2.90;99.90
40952;DHT22;26682;51.660;19.338;2023-02-01T06:35:21;2.90;99.90
40952;DHT22;26682;51.660;19.338;2023-02-01T06:37:08;2.90;99.90
40952;DHT22;26682;51.660;19.338;2023-02-01T06:38:59;2.90;99.90
40952;DHT22;26682;51.660;19.338;2023-02-01T06:40:53;2.90;99.90
40952;DHT22;26682;51.660;19.338;2023-02-01T06:42:41;2.90;99.90
40952;DHT22;26682;51.660;19.338;2023-02-01T06:44:28;2.90;99.90
40952;DHT22;26682;51.660;19.338;2023-02-01T06:46:19;2.90;99.90
40952;DHT22;26682;51.660;19.338;2023-02-01T06:48:06;3.00;99.90
40952;DHT22;26682;51.660;19.338;2023-02-01T06:49:54;3.00;99.90
40952;DHT22;26682;51.660;19.338;2023-02-01T06:51:41;3.00;99.90
40952;DHT22;26682;51.660;19.338;2023-02-01T06:53:29;3.00;99.90
40952;DHT22;26682;51.660;19.338;2023-02-01T06:55:16;3.00;99.90
40952;DHT22;26682;51.660;19.338;2023-02-01T06:57:04;3.00;99.90
40952;DHT22;26682;51.660;19.338;2023-02-01T06:58:51;3.10;99.90
40952;DHT22;26682;51.660;19.338;2023-02-01T07:00:39;3.40;99.90
40952;DHT22;26682;51.660;19.338;2023-02-01T07:02:26;3.20;20.60
40952;DHT22;26682;51.660;19.338;2023-02-01T07:04:14;3.20;29.40
40952;DHT22;26682;51.660;19.338;2023-02-01T07:06:01;3.20;42.40
40952;DHT22;26682;51.660;19.338;2023-02-01T07:07:49;3.10;42.00
40952;DHT22;26682;51.660;19.338;2023-02-01T07:09:36;3.10;53.20
40952;DHT22;26682;51.660;19.338;2023-02-01T07:11:24;3.10;48.70
40952;DHT22;26682;51.660;19.338;2023-02-01T07:13:14;3.10;57.30
40952;DHT22;26682;51.660;19.338;2023-02-01T07:15:02;3.10;50.10
40952;DHT22;26682;51.660;19.338;2023-02-01T07:16:50;3.10;51.00
40952;DHT22;26682;51.660;19.338;2023-02-01T07:18:38;3.10;54.20
40952;DHT22;26682;51.660;19.338;2023-02-01T07:20:25;3.10;57.80
40952;DHT22;26682;51.660;19.338;2023-02-01T07:22:16;3.10;50.40
40952;DHT22;26682;51.660;19.338;2023-02-01T07:24:04;3.10;46.50
40952;DHT22;26682;51.660;19.338;2023-02-01T07:26:00;3.10;38.10
40952;DHT22;26682;51.660;19.338;2023-02-01T07:27:48;3.10;29.70
40952;DHT22;26682;51.660;19.338;2023-02-01T07:29:36;3.10;17.00
40952;DHT22;26682;51.660;19.338;2023-02-01T07:31:24;3.10;21.70
40952;DHT22;26682;51.660;19.338;2023-02-01T07:33:13;3.20;30.30
40952;DHT22;26682;51.660;19.338;2023-02-01T07:35:00;3.20;9.90
40952;DHT22;26682;51.660;19.338;2023-02-01T07:36:48;3.20;2.40
40952;DHT22;26682;51.660;19.338;2023-02-01T07:38:36;3.20;1.00
40952;DHT22;26682;51.660;19.338;2023-02-01T07:40:23;3.20;5.90
40952;DHT22;26682;51.660;19.338;2023-02-01T07:42:15;3.20;16.20
40952;DHT22;26682;51.660;19.338;2023-02-01T07:44:03;3.20;18.40
40952;DHT22;26682;51.660;19.338;2023-02-01T07:45:52;3.20;49.90
40952;DHT22;26682;51.660;19.338;2023-02-01T07:47:39;3.20;49.40
40952;DHT22;26682;51.660;19.338;2023-02-01T07:49:27;3.20;38.10
40952;DHT22;26682;51.660;19.338;2023-02-01T07:51:17;3.20;53.80
40952;DHT22;26682;51.660;19.338;2023-02-01T07:53:05;3.20;41.80
40952;DHT22;26682;51.660;19.338;2023-02-01T07:54:52;3.20;36.20
40952;DHT22;26682;51.660;19.338;2023-02-01T07:56:39;3.20;24.10
40952;DHT22;26682;51.660;19.338;2023-02-01T07:58:27;3.30;8.80
40952;DHT22;26682;51.660;19.338;2023-02-01T08:00:15;3.30;10.80
40952;DHT22;26682;51.660;19.338;2023-02-01T08:02:21;3.40;1.00
40952;DHT22;26682;51.660;19.338;2023-02-01T08:04:11;3.40;1.00
40952;DHT22;26682;51.660;19.338;2023-02-01T08:05:59;3.40;1.00
40952;DHT22;26682;51.660;19.338;2023-02-01T08:07:49;3.30;1.00
40952;DHT22;26682;51.660;19.338;2023-02-01T08:09:37;3.30;1.00
40952;DHT22;26682;51.660;19.338;2023-02-01T08:11:26;3.30;18.10
40952;DHT22;26682;51.660;19.338;2023-02-01T08:13:14;3.30;34.30
40952;DHT22;26682;51.660;19.338;2023-02-01T08:15:02;3.30;46.10
40952;DHT22;26682;51.660;19.338;2023-02-01T08:16:49;3.30;62.70
40952;DHT22;26682;51.660;19.338;2023-02-01T08:18:38;3.20;85.10
40952;DHT22;26682;51.660;19.338;2023-02-01T08:20:26;3.20;94.90
40952;DHT22;26682;51.660;19.338;2023-02-01T08:22:13;3.20;95.00
40952;DHT22;26682;51.660;19.338;2023-02-01T08:24:05;3.20;99.90
40952;DHT22;26682;51.660;19.338;2023-02-01T08:25:52;3.20;99.90
40952;DHT22;26682;51.660;19.338;2023-02-01T08:27:40;3.20;99.90
40952;DHT22;26682;51.660;19.338;2023-02-01T08:29:28;3.20;96.70
40952;DHT22;26682;51.660;19.338;2023-02-01T08:31:16;3.30;95.60
40952;DHT22;26682;51.660;19.338;2023-02-01T08:33:05;3.30;85.10
40952;DHT22;26682;51.660;19.338;2023-02-01T08:34:56;3.30;99.90
40952;DHT22;26682;51.660;19.338;2023-02-01T08:36:43;3.30;92.80
40952;DHT22;26682;51.660;19.338;2023-02-01T08:38:31;3.30;89.60
40952;DHT22;26682;51.660;19.338;2023-02-01T08:40:18;3.30;67.00
40952;DHT22;26682;51.660;19.338;2023-02-01T08:42:09;3.30;49.90
40952;DHT22;26682;51.660;19.338;2023-02-01T08:44:15;3.40;42.50
40952;DHT22;26682;51.660;19.338;2023-02-01T08:46:04;3.40;25.90
40952;DHT22;26682;51.660;19.338;2023-02-01T08:47:52;3.40;10.40
40952;DHT22;26682;51.660;19.338;2023-02-01T08:49:39;3.50;11.90
40952;DHT22;26682;51.660;19.338;2023-02-01T08:51:27;3.50;4.10
40952;DHT22;26682;51.660;19.338;2023-02-01T08:53:15;3.50;5.70
40952;DHT22;26682;51.660;19.338;2023-02-01T08:55:02;3.50;7.70
40952;DHT22;26682;51.660;19.338;2023-02-01T08:56:50;3.60;20.40
40952;DHT22;26682;51.660;19.338;2023-02-01T08:58:38;3.60;21.00
40952;DHT22;26682;51.660;19.338;2023-02-01T09:00:26;3.60;9.30
40952;DHT22;26682;51.660;19.338;2023-02-01T09:02:14;3.60;1.00
40952;DHT22;26682;51.660;19.338;2023-02-01T09:04:02;3.70;1.00
40952;DHT22;26682;51.660;19.338;2023-02-01T09:05:50;3.60;1.00
40952;DHT22;26682;51.660;19.338;2023-02-01T09:07:40;3.60;1.00
40952;DHT22;26682;51.660;19.338;2023-02-01T09:09:28;3.70;1.00
40952;DHT22;26682;51.660;19.338;2023-02-01T09:11:17;3.70;16.70
40952;DHT22;26682;51.660;19.338;2023-02-01T09:13:07;3.60;27.50
40952;DHT22;26682;51.660;19.338;2023-02-01T09:14:56;3.60;64.10
40952;DHT22;26682;51.660;19.338;2023-02-01T09:16:46;3.60;91.60
40952;DHT22;26682;51.660;19.338;2023-02-01T09:18:34;3.50;99.90
40952;DHT22;26682;51.660;19.338;2023-02-01T09:20:22;3.50;99.90
40952;DHT22;26682;51.660;19.338;2023-02-01T09:22:11;3.50;99.90
40952;DHT22;26682;51.660;19.338;2023-02-01T09:23:59;3.50;99.90
40952;DHT22;26682;51.660;19.338;2023-02-01T09:25:50;3.50;99.90
40952;DHT22;26682;51.660;19.338;2023-02-01T09:27:38;3.60;99.90
40952;DHT22;26682;51.660;19.338;2023-02-01T09:29:26;3.60;99.90
40952;DHT22;26682;51.660;19.338;2023-02-01T09:31:15;3.60;99.90
40952;DHT22;26682;51.660;19.338;2023-02-01T09:33:03;3.60;99.90
40952;DHT22;26682;51.660;19.338;2023-02-01T09:34:52;3.60;99.90
40952;DHT22;26682;51.660;19.338;2023-02-01T09:36:39;3.50;99.90
40952;DHT22;26682;51.660;19.338;2023-02-01T09:38:27;3.40;99.90
40952;DHT22;26682;51.660;19.338;2023-02-01T09:40:16;3.40;99.90
40952;DHT22;26682;51.660;19.338;2023-02-01T09:46:40;3.30;99.90
40952;DHT22;26682;51.660;19.338;2023-02-01T09:48:32;3.20;99.90
40952;DHT22;26682;51.660;19.338;2023-02-01T09:50:35;3.10;99.90
40952;DHT22;26682;51.660;19.338;2023-02-01T09:52:48;3.10;1.00
40952;DHT22;26682;51.660;19.338;2023-02-01T09:54:47;3.00;1.00
40952;DHT22;26682;51.660;19.338;2023-02-01T09:56:54;3.00;1.00
40952;DHT22;26682;51.660;19.338;2023-02-01T09:59:26;3.10;1.00
40952;DHT22;26682;51.660;19.338;2023-02-01T10:01:10;3.10;1.00
40952;DHT22;26682;51.660;19.338;2023-02-01T10:03:02;3.10;1.00
40952;DHT22;26682;51.660;19.338;2023-02-01T10:04:52;3.10;1.00
40952;DHT22;26682;51.660;19.338;2023-02-01T10:09:12;3.10;1.00
40952;DHT22;26682;51.660;19.338;2023-02-01T10:21:58;3.40;1.00
40952;DHT22;26682;51.660;19.338;2023-02-01T10:28:15;3.40;1.00
40952;DHT22;26682;51.660;19.338;2023-02-01T10:30:22;3.40;1.00
40952;DHT22;26682;51.660;19.338;2023-02-01T10:32:22;3.40;1.00
40952;DHT22;26682;51.660;19.338;2023-02-01T10:38:11;3.40;1.00
40952;DHT22;26682;51.660;19.338;2023-02-01T10:42:02;3.60;1.00
40952;DHT22;26682;51.660;19.338;2023-02-01T10:43:55;3.70;1.00
40952;DHT22;26682;51.660;19.338;2023-02-01T10:45:44;3.70;1.00
40952;DHT22;26682;51.660;19.338;2023-02-01T10:47:31;3.80;1.00
40952;DHT22;26682;51.660;19.338;2023-02-01T10:49:37;3.80;1.00
40952;DHT22;26682;51.660;19.338;2023-02-01T10:51:37;3.80;1.00
40952;DHT22;26682;51.660;19.338;2023-02-01T10:53:55;3.80;1.00
40952;DHT22;26682;51.660;19.338;2023-02-01T10:55:51;3.80;1.00
40952;DHT22;26682;51.660;19.338;2023-02-01T10:57:39;3.80;1.00
40952;DHT22;26682;51.660;19.338;2023-02-01T10:59:28;3.90;1.00
40952;DHT22;26682;51.660;19.338;2023-02-01T11:01:45;3.80;1.00
40952;DHT22;26682;51.660;19.338;2023-02-01T11:03:56;3.80;1.00
40952;DHT22;26682;51.660;19.338;2023-02-01T11:05:48;3.90;1.00
40952;DHT22;26682;51.660;19.338;2023-02-01T11:07:36;4.00;1.00
40952;DHT22;26682;51.660;19.338;2023-02-01T11:09:25;4.00;1.00
40952;DHT22;26682;51.660;19.338;2023-02-01T11:11:13;4.00;1.00
40952;DHT22;26682;51.660;19.338;2023-02-01T11:13:02;4.10;1.00
40952;DHT22;26682;51.660;19.338;2023-02-01T11:14:50;4.20;1.00
40952;DHT22;26682;51.660;19.338;2023-02-01T11:16:39;4.30;1.00
40952;DHT22;26682;51.660;19.338;2023-02-01T11:18:30;4.30;1.00
40952;DHT22;26682;51.660;19.338;2023-02-01T11:22:19;4.40;1.00
40952;DHT22;26682;51.660;19.338;2023-02-01T11:24:35;4.40;1.00
40952;DHT22;26682;51.660;19.338;2023-02-01T11:26:26;4.50;1.00
40952;DHT22;26682;51.660;19.338;2023-02-01T11:28:15;4.50;99.90
40952;DHT22;26682;51.660;19.338;2023-02-01T11:30:03;4.60;99.90
40952;DHT22;26682;51.660;19.338;2023-02-01T11:31:51;4.70;99.90
40952;DHT22;26682;51.660;19.338;2023-02-01T11:33:49;4.80;99.90
40952;DHT22;26682;51.660;19.338;2023-02-01T11:35:38;4.90;99.90
40952;DHT22;26682;51.660;19.338;2023-02-01T11:37:40;4.90;99.90
40952;DHT22;26682;51.660;19.338;2023-02-01T11:39:33;5.00;99.90
40952;DHT22;26682;51.660;19.338;2023-02-01T11:41:26;5.10;99.90
40952;DHT22;26682;51.660;19.338;2023-02-01T11:43:25;5.10;99.90
40952;DHT22;26682;51.660;19.338;2023-02-01T11:45:25;5.10;99.90
40952;DHT22;26682;51.660;19.338;2023-02-01T11:49:24;5.00;99.90
40952;DHT22;26682;51.660;19.338;2023-02-01T11:51:38;4.90;99.90
40952;DHT22;26682;51.660;19.338;2023-02-01T12:00:02;4.70;99.90
40952;DHT22;26682;51.660;19.338;2023-02-01T12:02:32;4.70;99.90
40952;DHT22;26682;51.660;19.338;2023-02-01T12:06:22;4.60;99.90
40952;DHT22;26682;51.660;19.338;2023-02-01T12:19:27;4.30;99.90
40952;DHT22;26682;51.660;19.338;2023-02-01T12:30:01;4.40;99.90
40952;DHT22;26682;51.660;19.338;2023-02-01T12:34:29;4.30;99.90
40952;DHT22;26682;51.660;19.338;2023-02-01T12:36:31;4.30;99.90
40952;DHT22;26682;51.660;19.338;2023-02-01T12:43:33;4.30;99.90
40952;DHT22;26682;51.660;19.338;2023-02-01T12:46:19;4.30;99.90
40952;DHT22;26682;51.660;19.338;2023-02-01T12:47:46;4.30;99.90
40952;DHT22;26682;51.660;19.338;2023-02-01T12:49:40;4.20;99.90
40952;DHT22;26682;51.660;19.338;2023-02-01T12:51:35;4.20;99.90
40952;DHT22;26682;51.660;19.338;2023-02-01T12:53:27;4.20;99.90
40952;DHT22;26682;51.660;19.338;2023-02-01T12:55:28;4.20;99.90
40952;DHT22;26682;51.660;19.338;2023-02-01T12:57:26;4.20;99.90
40952;DHT22;26682;51.660;19.338;2023-02-01T13:01:45;4.20;99.90
40952;DHT22;26682;51.660;19.338;2023-02-01T13:03:50;4.20;99.90
40952;DHT22;26682;51.660;19.338;2023-02-01T13:06:02;4.20;99.90
40952;DHT22;26682;51.660;19.338;2023-02-01T13:08:02;4.00;99.90
40952;DHT22;26682;51.660;19.338;2023-02-01T13:11:44;3.80;1.00
40952;DHT22;26682;51.660;19.338;2023-02-01T13:16:49;3.60;1.00
40952;DHT22;26682;51.660;19.338;2023-02-01T13:18:09;3.50;1.00
40952;DHT22;26682;51.660;19.338;2023-02-01T13:20:25;3.40;1.00
40952;DHT22;26682;51.660;19.338;2023-02-01T13:22:27;3.30;1.00
40952;DHT22;26682;51.660;19.338;2023-02-01T13:24:39;3.30;1.00
40952;DHT22;26682;51.660;19.338;2023-02-01T13:26:30;3.30;1.00
40952;DHT22;26682;51.660;19.338;2023-02-01T13:28:44;3.30;21.40
40952;DHT22;26682;51.660;19.338;2023-02-01T13:35:42;3.40;79.10